Time;durP1;ratioP1;P1;durP2;ratioP2;P2;SDS_P1;SDS_P2;PMS_P1;PMS_P2;Temp;Humidity;BMP_temperature;BMP_pressure;BME280_temperature;BME280_humidity;BME280_pressure;Samples;Min_cycle;Max_cycle;Signal;HPM_P1;HPM_P2
2021/10/21 00:01:05;;;;;;;;;;;;;;;17.43;72.16;98834.91;4960743;28;19925;-82
2021/10/21 00:03:30;;;;;;;;;;;;;;;18.35;65.29;98777.34;4977888;28;19922;-82
2021/10/21 00:05:55;;;;;;;;;;;;;;;18.92;62.08;98720.72;4961187;28;19918;-83
2021/10/21 00:08:21;;;;;;;;;;;;;;;18.38;62.26;98715.94;4978040;28;19926;-82
2021/10/21 00:10:48;;;;;;;;;;;;;;;18.12;62.21;98714.28;4978343;28;20012;-82
2021/10/21 00:13:13;;;;;;;;;;;;;;;18.36;61.54;98701.56;4961028;28;19918;-83
2021/10/21 00:15:38;;;;;;;;;;;;;;;18.72;60.21;98662.72;4960608;28;19938;-83
2021/10/21 00:18:04;;;;;;;;;;;;;;;19.16;58.74;98661.28;4978388;28;20298;-83
2021/10/21 00:20:30;;;;;;;;;;;;;;;19.33;58.28;98671.13;4978090;28;20284;-83
2021/10/21 00:22:55;;;;;;;;;;;;;;;18.72;60.47;98662.72;4960898;28;19918;-83
2021/10/21 00:25:20;;;;;;;;;;;;;;;17.09;71.07;98717.47;4977824;28;19922;-82
2021/10/21 00:27:45;;;;;;;;;;;;;;;17.71;65.62;98709.69;4978803;28;19933;-83
2021/10/21 00:30:11;;;;;;;;;;;;;;;16.91;68.01;98704.81;4959966;28;19986;-83
2021/10/21 00:32:36;;;;;;;;;;;;;;;17.37;65.84;98712.56;4960231;28;19919;-81
2021/10/21 00:35:01;;;;;;;;;;;;;;;16.57;67.86;98713.03;4960266;28;20249;-82
2021/10/21 00:37:26;;;;;;;;;;;;;;;16.78;66.92;98702.50;4960363;28;19918;-81
2021/10/21 00:39:52;;;;;;;;;;;;;;;16.66;67.08;98717.50;4960640;28;19926;-83
2021/10/21 00:42:17;;;;;;;;;;;;;;;16.86;65.97;98703.56;4964140;28;19918;-82
2021/10/21 00:44:43;;;;;;;;;;;;;;;16.38;66.32;98700.47;4964319;28;20013;-82
2021/10/21 00:47:08;;;;;;;;;;;;;;;16.88;65.39;98702.44;4963993;28;19918;-83
2021/10/21 00:49:34;;;;;;;;;;;;;;;16.99;65.06;98698.53;4980818;28;19918;-83
2021/10/21 00:51:59;;;;;;;;;;;;;;;16.84;65.46;98673.69;4964105;28;19922;-83
2021/10/21 00:54:24;;;;;;;;;;;;;;;16.40;65.93;98676.63;4963919;28;19925;-83
2021/10/21 00:56:51;;;;;;;;;;;;;;;16.60;64.96;98656.22;4963895;28;19930;-83
2021/10/21 00:59:16;;;;;;;;;;;;;;;17.13;63.18;98656.88;4963928;28;19957;-82
2021/10/21 01:01:42;;;;;;;;;;;;;;;16.59;64.79;98662.72;4981187;28;19925;-83
2021/10/21 01:04:07;;;;;;;;;;;;;;;17.33;63.24;98675.66;4963721;28;19918;-83
2021/10/21 01:06:33;;;;;;;;;;;;;;;16.47;64.55;98672.19;4981016;28;19989;-84
2021/10/21 01:08:58;;;;;;;;;;;;;;;16.42;64.63;98675.41;4963855;28;19918;-82
2021/10/21 01:11:23;;;;;;;;;;;;;;;15.82;63.01;98689.06;4964040;28;19969;-82
2021/10/21 01:13:49;;;;;;;;;;;;;;;17.06;59.84;98685.03;4964361;28;20375;-83
2021/10/21 01:16:15;;;;;;;;;;;;;;;16.59;59.18;98675.50;4963954;28;20009;-83
2021/10/21 01:18:42;;;;;;;;;;;;;;;16.72;59.03;98673.16;4964540;28;20375;-83
2021/10/21 01:21:08;;;;;;;;;;;;;;;17.00;58.24;98681.13;4963859;28;20371;-84
2021/10/21 01:23:35;;;;;;;;;;;;;;;16.33;59.29;98687.31;4963566;28;19969;-83
2021/10/21 01:26:00;;;;;;;;;;;;;;;16.60;58.72;98669.88;4963515;28;19929;-83
2021/10/21 01:28:25;;;;;;;;;;;;;;;17.29;57.70;98661.50;4980393;28;19918;-83
2021/10/21 01:30:51;;;;;;;;;;;;;;;16.40;59.32;98668.44;4963286;28;19922;-83
2021/10/21 01:33:16;;;;;;;;;;;;;;;16.74;58.90;98676.59;4980103;28;19915;-82
2021/10/21 01:35:42;;;;;;;;;;;;;;;16.49;58.89;98681.09;4979800;28;19917;-83
2021/10/21 01:38:08;;;;;;;;;;;;;;;17.27;57.88;98674.50;4980597;28;19919;-82
2021/10/21 01:40:33;;;;;;;;;;;;;;;16.49;58.76;98664.72;4962133;28;19925;-82
2021/10/21 01:42:59;;;;;;;;;;;;;;;16.27;59.63;98677.06;4980187;28;20355;-82
2021/10/21 01:45:26;;;;;;;;;;;;;;;16.80;59.49;98658.66;4980052;28;19929;-81
2021/10/21 01:47:51;;;;;;;;;;;;;;;16.37;59.81;98666.03;4962961;28;19918;-82
2021/10/21 01:50:17;;;;;;;;;;;;;;;16.36;59.55;98672.50;4962817;28;20386;-83
2021/10/21 01:52:43;;;;;;;;;;;;;;;16.39;59.43;98658.53;4961988;28;19924;-82
2021/10/21 01:55:09;;;;;;;;;;;;;;;15.31;60.85;98662.44;4962219;28;20009;-82
2021/10/21 01:57:34;;;;;;;;;;;;;;;15.79;60.90;98657.53;4962549;28;19922;-81
2021/10/21 01:59:59;;;;;;;;;;;;;;;16.61;59.92;98657.09;4962632;28;19988;-83
2021/10/21 02:02:25;;;;;;;;;;;;;;;15.56;62.43;98655.28;4979850;28;19985;-82
2021/10/21 02:04:50;;;;;;;;;;;;;;;15.94;61.95;98666.84;4962679;28;19918;-80
2021/10/21 02:07:15;;;;;;;;;;;;;;;15.90;62.79;98665.44;4960214;28;20291;-83
2021/10/21 02:09:40;;;;;;;;;;;;;;;15.36;62.90;98668.25;4958531;28;19941;-83
2021/10/21 02:12:06;;;;;;;;;;;;;;;16.01;63.90;98655.28;4958911;28;20004;-82
2021/10/21 02:14:31;;;;;;;;;;;;;;;15.06;66.03;98650.47;4975366;28;19949;-83
2021/10/21 02:16:57;;;;;;;;;;;;;;;15.39;64.71;98650.75;4975965;28;19918;-83
2021/10/21 02:19:22;;;;;;;;;;;;;;;16.10;63.32;98648.84;4975786;28;20383;-82
2021/10/21 02:21:47;;;;;;;;;;;;;;;16.37;63.36;98630.56;4960219;28;19925;-82
2021/10/21 02:24:12;;;;;;;;;;;;;;;17.13;61.13;98623.25;4976766;28;19930;-83
2021/10/21 02:26:38;;;;;;;;;;;;;;;16.27;62.27;98623.38;4974934;28;19922;-83
2021/10/21 02:29:03;;;;;;;;;;;;;;;15.72;63.96;98618.28;4975354;28;19918;-83
2021/10/21 02:31:28;;;;;;;;;;;;;;;16.07;63.51;98600.94;4975310;28;19925;-82
2021/10/21 02:33:53;;;;;;;;;;;;;;;16.30;63.31;98609.41;4958014;28;19924;-82
2021/10/21 02:36:19;;;;;;;;;;;;;;;16.43;62.59;98608.06;4957660;28;20016;-82
2021/10/21 02:38:44;;;;;;;;;;;;;;;16.64;61.33;98603.00;4957523;28;19942;-82
2021/10/21 02:41:09;;;;;;;;;;;;;;;15.95;62.96;98603.09;4974836;28;19965;-82
2021/10/21 02:43:35;;;;;;;;;;;;;;;17.04;61.06;98610.59;4974703;28;19914;-82
2021/10/21 02:46:02;;;;;;;;;;;;;;;17.43;59.69;98598.97;4974984;28;19918;-83
2021/10/21 02:48:27;;;;;;;;;;;;;;;16.90;60.77;98593.84;4957773;28;20376;-83
2021/10/21 02:50:53;;;;;;;;;;;;;;;16.96;60.65;98595.91;4957566;28;19918;-83
2021/10/21 02:53:18;;;;;;;;;;;;;;;16.22;62.59;98594.88;4974882;28;19972;-83
2021/10/21 02:55:43;;;;;;;;;;;;;;;16.96;61.04;98595.91;4974592;28;19929;-82
2021/10/21 02:58:08;;;;;;;;;;;;;;;16.20;62.40;98589.56;4957511;28;19919;-83
2021/10/21 03:00:33;;;;;;;;;;;;;;;16.60;61.72;98582.50;4957563;28;19918;-83
2021/10/21 03:02:59;;;;;;;;;;;;;;;16.48;62.58;98586.59;4956659;28;19922;-83
2021/10/21 03:05:24;;;;;;;;;;;;;;;16.13;62.75;98588.50;4974811;28;19925;-83
2021/10/21 03:07:50;;;;;;;;;;;;;;;16.29;62.82;98585.00;4974993;28;19926;-83
2021/10/21 03:10:15;;;;;;;;;;;;;;;17.25;60.82;98574.56;4974902;28;20004;-83
2021/10/21 03:12:40;;;;;;;;;;;;;;;16.31;62.84;98580.22;4957418;28;20276;-83
2021/10/21 03:15:06;;;;;;;;;;;;;;;17.64;59.77;98585.63;4974425;28;19922;-83
2021/10/21 03:17:31;;;;;;;;;;;;;;;17.41;60.31;98580.03;4957385;28;20311;-84
2021/10/21 03:19:56;;;;;;;;;;;;;;;17.88;58.65;98601.09;4957216;28;19952;-83
2021/10/21 03:22:21;;;;;;;;;;;;;;;16.86;61.54;98576.06;4957508;28;19953;-83
2021/10/21 03:24:46;;;;;;;;;;;;;;;17.22;60.69;98574.91;4974951;28;19922;-83
2021/10/21 03:27:12;;;;;;;;;;;;;;;17.52;59.53;98579.66;4957053;28;19918;-82
2021/10/21 03:29:37;;;;;;;;;;;;;;;17.32;60.19;98579.16;4957196;28;19919;-83
2021/10/21 03:32:02;;;;;;;;;;;;;;;17.31;60.28;98582.06;4957147;28;19968;-83
2021/10/21 03:34:28;;;;;;;;;;;;;;;17.00;60.48;98586.34;4974401;28;20372;-84
2021/10/21 03:36:53;;;;;;;;;;;;;;;17.57;59.30;98584.59;4956950;28;19918;-84
2021/10/21 03:39:18;;;;;;;;;;;;;;;17.08;61.43;98587.38;4956914;28;19918;-83
2021/10/21 03:41:43;;;;;;;;;;;;;;;17.12;60.62;98584.16;4974481;28;20288;-83
2021/10/21 03:44:09;;;;;;;;;;;;;;;17.57;60.50;98586.47;4957252;28;19957;-83
2021/10/21 03:46:34;;;;;;;;;;;;;;;16.77;61.34;98585.28;4973870;28;20024;-83
2021/10/21 03:48:59;;;;;;;;;;;;;;;16.57;63.01;98577.38;4974238;28;19922;-84
2021/10/21 03:51:24;;;;;;;;;;;;;;;17.28;61.10;98596.94;4957093;28;20340;-83
2021/10/21 03:53:50;;;;;;;;;;;;;;;17.20;60.27;98602.41;4956744;28;19969;-84
2021/10/21 03:56:15;;;;;;;;;;;;;;;17.01;62.94;98598.13;4974426;28;20317;-84
2021/10/21 03:58:41;;;;;;;;;;;;;;;17.43;61.72;98601.72;4957138;28;20295;-82
2021/10/21 04:01:06;;;;;;;;;;;;;;;16.39;64.21;98618.44;4974114;28;19925;-83
2021/10/21 04:03:32;;;;;;;;;;;;;;;17.68;60.76;98617.06;4957028;28;19922;-84
2021/10/21 04:05:57;;;;;;;;;;;;;;;16.59;63.91;98632.69;4956753;28;20399;-84
2021/10/21 04:08:22;;;;;;;;;;;;;;;17.15;63.07;98645.75;4957060;28;20357;-82
2021/10/21 04:10:48;;;;;;;;;;;;;;;17.09;62.77;98638.25;4956824;28;19918;-83
2021/10/21 04:13:13;;;;;;;;;;;;;;;16.38;65.38;98705.94;4956910;28;20010;-83
2021/10/21 04:15:40;;;;;;;;;;;;;;;16.01;65.83;98694.31;4959799;28;19922;-83
2021/10/21 04:18:05;;;;;;;;;;;;;;;15.58;65.67;98672.34;4962137;28;19918;-82
2021/10/21 04:20:31;;;;;;;;;;;;;;;14.88;67.56;98686.69;4962037;28;19995;-83
2021/10/21 04:22:56;;;;;;;;;;;;;;;14.97;66.69;98665.00;4977986;28;19918;-84
2021/10/21 04:25:21;;;;;;;;;;;;;;;14.54;68.26;98703.63;4978803;28;19929;-84
2021/10/21 04:27:46;;;;;;;;;;;;;;;14.63;68.81;98741.84;4960835;28;20331;-82
2021/10/21 04:30:15;;;;;;;;;;;;;;;14.27;68.74;98756.16;4960557;28;20285;-81
2021/10/21 04:32:40;;;;;;;;;;;;;;;14.85;67.27;98781.44;4960049;28;19989;-81
2021/10/21 04:35:06;;;;;;;;;;;;;;;14.72;67.98;98814.47;4960231;28;19918;-82
2021/10/21 04:37:32;;;;;;;;;;;;;;;14.97;66.80;98831.09;4960173;28;19922;-80
2021/10/21 04:39:57;;;;;;;;;;;;;;;14.83;67.77;98868.69;4945346;28;20036;-81
2021/10/21 04:42:29;;;;;;;;;;;;;;;14.91;66.26;98878.00;4984077;28;19918;-85
2021/10/21 04:44:55;;;;;;;;;;;;;;;14.92;67.11;98915.13;4974525;28;19920;-84
2021/10/21 04:47:20;;;;;;;;;;;;;;;14.65;67.64;98941.25;4991734;28;19929;-84
2021/10/21 04:49:45;;;;;;;;;;;;;;;14.56;68.33;98956.53;4972837;28;19942;-89
2021/10/21 04:52:11;;;;;;;;;;;;;;;14.80;67.31;98974.31;4990838;28;19925;-86
2021/10/21 04:54:36;;;;;;;;;;;;;;;14.85;67.33;99007.38;4962313;28;20438;-86
2021/10/21 04:57:02;;;;;;;;;;;;;;;14.98;66.83;99015.25;4961329;28;19922;-85
2021/10/21 04:59:27;;;;;;;;;;;;;;;15.31;66.29;99051.13;4978844;28;19918;-87
2021/10/21 05:01:52;;;;;;;;;;;;;;;15.36;66.18;99062.47;4978137;28;19922;-85
2021/10/21 05:04:17;;;;;;;;;;;;;;;14.82;67.45;99068.44;4977938;28;20016;-86
2021/10/21 05:06:43;;;;;;;;;;;;;;;14.95;67.64;99106.25;4961426;28;20007;-86
2021/10/21 05:09:08;;;;;;;;;;;;;;;15.10;65.82;99116.69;4961464;28;19945;-87
2021/10/21 05:11:33;;;;;;;;;;;;;;;15.09;64.02;99129.47;4961517;28;20534;-86
2021/10/21 05:13:58;;;;;;;;;;;;;;;15.26;63.87;99148.81;4978352;28;20383;-83
2021/10/21 05:16:23;;;;;;;;;;;;;;;15.36;63.66;99166.00;4960602;28;19977;-86
2021/10/21 05:18:49;;;;;;;;;;;;;;;15.11;64.34;99192.81;4960692;28;19922;-85
2021/10/21 05:21:14;;;;;;;;;;;;;;;14.94;64.64;99199.00;4977854;28;19922;-84
2021/10/21 05:23:39;;;;;;;;;;;;;;;15.79;62.16;99212.88;4978103;28;19933;-84
2021/10/21 05:26:04;;;;;;;;;;;;;;;15.82;61.95;99234.41;4959962;28;19922;-85
2021/10/21 05:28:29;;;;;;;;;;;;;;;15.71;61.70;99238.13;4960501;28;19922;-81
2021/10/21 05:30:55;;;;;;;;;;;;;;;15.19;61.24;99249.34;4959913;28;19925;-84
2021/10/21 05:33:23;;;;;;;;;;;;;;;15.43;61.06;99257.09;4959485;28;20065;-83
2021/10/21 05:35:49;;;;;;;;;;;;;;;15.70;60.58;99274.56;4959761;28;19987;-83
2021/10/21 05:38:15;;;;;;;;;;;;;;;15.91;59.85;99283.47;4977152;28;19922;-86
2021/10/21 05:40:41;;;;;;;;;;;;;;;15.49;60.62;99289.22;4960433;28;20036;-82
2021/10/21 05:43:06;;;;;;;;;;;;;;;16.05;60.25;99311.31;4977305;28;19922;-83
2021/10/21 05:45:31;;;;;;;;;;;;;;;16.73;58.81;99323.91;4959749;28;19926;-84
2021/10/21 05:47:56;;;;;;;;;;;;;;;15.86;60.27;99340.31;4959521;28;19918;-82
2021/10/21 05:50:22;;;;;;;;;;;;;;;15.98;60.46;99365.56;4958476;28;20347;-84
2021/10/21 05:52:47;;;;;;;;;;;;;;;15.67;60.69;99373.00;4958232;28;19922;-84
2021/10/21 05:55:12;;;;;;;;;;;;;;;15.77;60.65;99401.13;4958627;28;19965;-85
2021/10/21 05:57:40;;;;;;;;;;;;;;;15.89;59.96;99397.28;4957905;28;20478;-84
2021/10/21 06:00:08;;;;;;;;;;;;;;;15.95;58.26;99415.81;4958050;28;19922;-82
2021/10/21 06:02:38;;;;;;;;;;;;;;;15.67;57.53;99441.16;4958840;28;19919;-83
2021/10/21 06:05:05;;;;;;;;;;;;;;;16.03;56.94;99442.38;4958486;28;19918;-83
2021/10/21 06:07:31;;;;;;;;;;;;;;;15.84;55.16;99440.50;4976062;28;19926;-85
2021/10/21 06:09:57;;;;;;;;;;;;;;;15.82;54.12;99464.34;4958320;28;19926;-84
2021/10/21 06:12:23;;;;;;;;;;;;;;;16.36;52.29;99459.31;4957437;28;19929;-84
2021/10/21 06:14:49;;;;;;;;;;;;;;;15.77;52.73;99470.19;4958187;28;19958;-84
2021/10/21 06:17:14;;;;;;;;;;;;;;;15.89;52.24;99483.72;4957353;28;19967;-85
2021/10/21 06:19:40;;;;;;;;;;;;;;;16.14;51.54;99474.13;4956234;28;19925;-84
2021/10/21 06:22:09;;;;;;;;;;;;;;;16.01;51.83;99457.19;4955871;28;19965;-85
2021/10/21 06:24:34;;;;;;;;;;;;;;;16.07;51.03;99492.06;4973421;28;19929;-85
2021/10/21 06:26:59;;;;;;;;;;;;;;;16.71;50.73;99508.88;4955934;28;20021;-85
2021/10/21 06:29:25;;;;;;;;;;;;;;;16.64;52.33;99553.16;4973538;28;20347;-84
2021/10/21 06:31:50;;;;;;;;;;;;;;;15.58;56.14;99577.31;4974867;28;19922;-85
2021/10/21 06:34:16;;;;;;;;;;;;;;;14.85;75.77;99579.16;4957952;28;20178;-84
2021/10/21 06:36:41;;;;;;;;;;;;;;;15.08;64.60;99585.31;4958388;28;19926;-86
2021/10/21 06:39:06;;;;;;;;;;;;;;;15.12;64.29;99591.38;4975827;28;19918;-86
2021/10/21 06:41:31;;;;;;;;;;;;;;;15.60;62.99;99602.56;4976099;28;19922;-86
2021/10/21 06:43:57;;;;;;;;;;;;;;;15.52;63.13;99612.41;4958481;28;20284;-85
2021/10/21 06:46:23;;;;;;;;;;;;;;;15.53;62.72;99623.16;4958700;28;19961;-85
2021/10/21 06:48:48;;;;;;;;;;;;;;;15.07;62.50;99629.91;4975982;28;19922;-86
2021/10/21 06:51:13;;;;;;;;;;;;;;;15.16;61.73;99640.03;4959076;28;20364;-87
2021/10/21 06:53:39;;;;;;;;;;;;;;;15.11;61.31;99641.41;4958342;28;19981;-87
2021/10/21 06:56:04;;;;;;;;;;;;;;;15.13;60.48;99656.63;4958227;28;19926;-86
2021/10/21 06:58:33;;;;;;;;;;;;;;;15.53;59.27;99660.47;4957198;28;20384;-85
2021/10/21 07:00:58;;;;;;;;;;;;;;;15.18;59.16;99675.31;4957291;28;20300;-83
2021/10/21 07:03:23;;;;;;;;;;;;;;;15.30;57.91;99695.19;4974645;28;19922;-83
2021/10/21 07:05:52;;;;;;;;;;;;;;;15.13;56.76;99710.25;4974682;28;19922;-83
2021/10/21 07:08:18;;;;;;;;;;;;;;;15.18;56.64;99711.56;4957032;28;19926;-83
2021/10/21 07:10:43;;;;;;;;;;;;;;;15.82;55.63;99715.22;4957185;28;19918;-84
2021/10/21 07:13:09;;;;;;;;;;;;;;;15.34;56.24;99732.94;4956381;28;19919;-83
2021/10/21 07:15:34;;;;;;;;;;;;;;;15.54;55.00;99744.84;4956290;28;20273;-83
2021/10/21 07:18:00;;;;;;;;;;;;;;;15.70;54.42;99762.59;4956392;28;19922;-82
2021/10/21 07:20:26;;;;;;;;;;;;;;;15.36;53.82;99768.22;4973913;28;19922;-85
2021/10/21 07:22:51;;;;;;;;;;;;;;;15.58;54.41;99779.03;4956704;28;20383;-82
2021/10/21 07:25:16;;;;;;;;;;;;;;;15.62;53.26;99785.06;4974311;28;20339;-86
2021/10/21 07:27:42;;;;;;;;;;;;;;;15.69;52.78;99791.75;4956668;28;19925;-83
2021/10/21 07:30:08;;;;;;;;;;;;;;;15.82;52.05;99796.16;4956479;28;20016;-85
2021/10/21 07:32:34;;;;;;;;;;;;;;;15.58;52.78;99811.75;4956916;28;19946;-85
2021/10/21 07:35:00;;;;;;;;;;;;;;;16.17;52.49;99820.38;4956084;28;19933;-84
2021/10/21 07:37:25;;;;;;;;;;;;;;;15.90;52.36;99824.50;4975610;28;19922;-84
2021/10/21 07:39:50;;;;;;;;;;;;;;;15.75;52.77;99823.94;4959121;28;19919;-86
2021/10/21 07:42:15;;;;;;;;;;;;;;;16.37;51.83;99831.41;4974709;28;20284;-83
2021/10/21 07:44:41;;;;;;;;;;;;;;;16.68;51.99;99836.88;4973160;28;20298;-84
2021/10/21 07:47:07;;;;;;;;;;;;;;;16.39;53.26;99853.97;4957077;28;19918;-84
2021/10/21 07:49:32;;;;;;;;;;;;;;;16.05;55.83;99855.06;4957000;28;20364;-85
2021/10/21 07:51:58;;;;;;;;;;;;;;;15.83;56.75;99864.22;4974086;28;20364;-84
2021/10/21 07:54:26;;;;;;;;;;;;;;;16.02;56.08;99873.53;4956667;28;20380;-85
2021/10/21 07:56:51;;;;;;;;;;;;;;;16.06;54.85;99875.88;4957248;28;20364;-84
2021/10/21 07:59:17;;;;;;;;;;;;;;;16.03;55.07;99888.91;4956754;28;19918;-84
2021/10/21 08:01:42;;;;;;;;;;;;;;;16.97;53.30;99905.31;4956706;28;19977;-85
2021/10/21 08:04:09;;;;;;;;;;;;;;;16.09;54.65;99902.03;4974106;28;19941;-84
2021/10/21 08:06:35;;;;;;;;;;;;;;;15.77;55.22;99916.50;4957019;28;20005;-85
2021/10/21 08:09:03;;;;;;;;;;;;;;;16.30;54.75;99922.03;4957022;28;20020;-85
2021/10/21 08:11:28;;;;;;;;;;;;;;;16.71;56.40;99934.91;4956724;28;20016;-84
2021/10/21 08:13:54;;;;;;;;;;;;;;;15.23;58.38;99937.31;4957825;28;20432;-84
2021/10/21 08:16:19;;;;;;;;;;;;;;;15.52;58.52;99947.69;4957393;28;19949;-85
2021/10/21 08:18:44;;;;;;;;;;;;;;;15.43;58.93;99938.44;4957051;28;20005;-84
2021/10/21 08:21:09;;;;;;;;;;;;;;;16.40;56.71;99949.38;4956861;28;20303;-85
2021/10/21 08:23:34;;;;;;;;;;;;;;;16.02;57.63;99959.00;4956521;28;19922;-85
2021/10/21 08:26:00;;;;;;;;;;;;;;;15.81;58.67;99972.56;4956735;28;19922;-85
2021/10/21 08:28:25;;;;;;;;;;;;;;;15.46;59.46;99959.97;4956586;28;19958;-84
2021/10/21 08:30:50;;;;;;;;;;;;;;;16.56;58.07;99957.13;4956389;28;19922;-84
2021/10/21 08:33:15;;;;;;;;;;;;;;;16.43;58.27;99965.50;4956842;28;19974;-84
2021/10/21 08:35:41;;;;;;;;;;;;;;;16.24;59.13;99982.56;4956770;28;19969;-84
2021/10/21 08:38:06;;;;;;;;;;;;;;;16.44;59.09;99978.16;4973951;28;19926;-84
2021/10/21 08:40:32;;;;;;;;;;;;;;;16.16;59.36;99985.09;4974408;28;19925;-84
2021/10/21 08:42:58;;;;;;;;;;;;;;;15.98;60.67;99986.66;4974418;28;19944;-84
2021/10/21 08:45:27;;;;;;;;;;;;;;;15.92;61.19;99983.44;4957859;28;20039;-88
2021/10/21 08:47:55;;;;;;;;;;;;;;;15.90;61.46;99985.44;4937303;29;19946;-82
2021/10/21 08:50:20;;;;;;;;;;;;;;;16.79;59.06;99995.22;4954099;28;19926;-84
2021/10/21 08:52:45;;;;;;;;;;;;;;;16.38;60.21;99996.91;4956003;28;19918;-85
2021/10/21 08:55:12;;;;;;;;;;;;;;;16.28;60.00;100000.41;4956011;28;19925;-83
2021/10/21 08:57:37;;;;;;;;;;;;;;;16.33;59.21;100001.91;4973400;28;20331;-83
2021/10/21 09:00:03;;;;;;;;;;;;;;;16.42;59.77;100012.03;4972877;28;20016;-82
2021/10/21 09:02:38;;;;;;;;;;;;;;;16.75;58.79;100008.25;4957912;28;20402;-81
2021/10/21 09:05:17;;;;;;;;;;;;;;;16.37;59.25;100017.88;4959365;28;19918;-83
2021/10/21 09:07:56;;;;;;;;;;;;;;;16.07;60.52;100043.19;4957408;28;20613;-83
2021/10/21 09:10:21;;;;;;;;;;;;;;;16.50;59.77;100053.22;4946912;28;20029;-82
2021/10/21 09:12:47;;;;;;;;;;;;;;;16.22;60.69;100041.88;4975909;28;20384;-84
2021/10/21 09:15:15;;;;;;;;;;;;;;;16.75;58.90;100043.75;4976844;28;19950;-84
2021/10/21 09:17:41;;;;;;;;;;;;;;;15.87;61.34;100063.94;4959548;28;20013;-83
2021/10/21 09:20:26;;;;;;;;;;;;;;;15.93;61.50;100066.16;4976592;28;20000;-80
2021/10/21 09:22:56;;;;;;;;;;;;;;;17.13;58.20;100066.91;4978719;28;19977;-83
2021/10/21 09:25:22;;;;;;;;;;;;;;;16.05;60.76;100075.19;4978906;28;19968;-85
2021/10/21 09:27:48;;;;;;;;;;;;;;;15.88;60.18;100069.28;4979120;28;20375;-83
2021/10/21 09:30:19;;;;;;;;;;;;;;;16.47;58.64;100067.97;4996327;28;19918;-86
2021/10/21 09:32:45;;;;;;;;;;;;;;;16.48;59.26;100088.81;4979309;28;19918;-84
2021/10/21 09:35:10;;;;;;;;;;;;;;;17.05;57.71;100088.56;4997098;28;19929;-84
2021/10/21 09:37:39;;;;;;;;;;;;;;;16.69;59.33;100100.78;4980122;28;20322;-83
2021/10/21 09:40:11;;;;;;;;;;;;;;;16.28;59.68;100103.28;4978874;28;19913;-83
2021/10/21 09:42:43;;;;;;;;;;;;;;;16.69;58.68;100104.38;4978690;28;19918;-83
2021/10/21 09:45:19;;;;;;;;;;;;;;;16.60;58.14;100108.75;4996369;28;19914;-82
2021/10/21 09:47:48;;;;;;;;;;;;;;;16.20;58.76;100123.03;4978408;28;19917;-82
2021/10/21 09:50:22;;;;;;;;;;;;;;;16.69;57.52;100122.63;4977975;28;20283;-83
2021/10/21 09:53:06;;;;;;;;;;;;;;;15.74;61.67;100157.59;4962453;28;20368;-83
2021/10/21 09:55:42;;;;;;;;;;;;;;;15.89;60.92;100158.28;4957563;28;20072;-85
2021/10/21 09:58:08;;;;;;;;;;;;;;;15.58;62.30;100165.31;4958924;28;19933;-82
2021/10/21 10:00:35;;;;;;;;;;;;;;;16.11;60.65;100157.41;4975994;28;19944;-85
2021/10/21 10:03:26;;;;;;;;;;;;;;;15.78;60.51;100150.09;4958985;28;19934;-83
2021/10/21 10:05:52;;;;;;;;;;;;;;;16.45;58.10;100145.53;4947773;28;20021;-83
2021/10/21 10:08:18;;;;;;;;;;;;;;;16.76;55.98;100162.09;4958650;28;19984;-81
2021/10/21 10:10:44;;;;;;;;;;;;;;;16.94;55.98;100146.91;4958963;28;19918;-83
2021/10/21 10:13:10;;;;;;;;;;;;;;;17.03;56.38;100152.56;4977446;28;20138;-83
2021/10/21 10:15:36;;;;;;;;;;;;;;;17.36;53.70;100155.09;4957719;28;19969;-82
2021/10/21 10:18:06;;;;;;;;;;;;;;;16.75;55.60;100155.75;4956232;28;20025;-82
2021/10/21 10:20:31;;;;;;;;;;;;;;;16.39;57.03;100157.84;4955969;29;20398;-83
2021/10/21 10:22:59;;;;;;;;;;;;;;;16.95;55.52;100156.84;4938862;29;19914;-83
2021/10/21 10:25:25;;;;;;;;;;;;;;;17.89;53.81;100167.81;4955814;29;20025;-83
2021/10/21 10:27:55;;;;;;;;;;;;;;;17.44;54.51;100172.72;4938471;29;19992;-83
2021/10/21 10:30:58;;;;;;;;;;;;;;;17.17;55.34;100166.75;4955510;29;19965;-82
2021/10/21 10:33:33;;;;;;;;;;;;;;;17.92;54.40;100188.56;4880729;29;20436;-81
2021/10/21 10:36:17;;;;;;;;;;;;;;;16.64;58.64;100218.63;4880544;29;20296;-83
2021/10/21 10:38:42;;;;;;;;;;;;;;;15.68;61.24;100236.31;4934700;29;19923;-82
2021/10/21 10:41:07;;;;;;;;;;;;;;;15.51;61.74;100248.56;4955384;29;19941;-82
2021/10/21 10:43:40;;;;;;;;;;;;;;;14.35;64.27;100266.22;4938836;29;19919;-83
2021/10/21 10:46:06;;;;;;;;;;;;;;;14.39;64.44;100275.06;4938627;29;20332;-83
2021/10/21 10:48:48;;;;;;;;;;;;;;;14.84;63.54;100291.75;4949155;28;19972;-82
2021/10/21 10:51:13;;;;;;;;;;;;;;;14.87;61.87;100296.97;4976605;28;19924;-82
2021/10/21 10:53:43;;;;;;;;;;;;;;;14.67;62.04;100312.06;4974934;28;19918;-85
2021/10/21 10:56:09;;;;;;;;;;;;;;;14.94;61.35;100319.13;4958491;28;19946;-84
2021/10/21 10:58:34;;;;;;;;;;;;;;;14.87;61.09;100329.63;4958060;28;19918;-85
2021/10/21 11:01:00;;;;;;;;;;;;;;;14.54;60.52;100347.41;4958148;28;19928;-84
2021/10/21 11:03:38;;;;;;;;;;;;;;;14.75;60.00;100348.72;4958137;28;20028;-85
2021/10/21 11:06:13;;;;;;;;;;;;;;;14.97;59.82;100367.09;4958194;28;19926;-85
2021/10/21 11:08:51;;;;;;;;;;;;;;;15.29;59.44;100378.28;4975350;28;20459;-85
2021/10/21 11:11:35;;;;;;;;;;;;;;;14.90;60.71;100377.56;4958397;28;19925;-85
2021/10/21 11:14:04;;;;;;;;;;;;;;;14.39;60.10;100402.97;4958044;28;20034;-85
2021/10/21 11:16:41;;;;;;;;;;;;;;;14.44;60.26;100387.16;4957988;28;19924;-85
2021/10/21 11:19:07;;;;;;;;;;;;;;;14.72;58.95;100387.94;4958337;28;19922;-86
2021/10/21 11:21:53;;;;;;;;;;;;;;;15.33;56.82;100388.00;4958374;28;19925;-85
2021/10/21 11:24:37;;;;;;;;;;;;;;;15.72;55.71;100402.31;4957928;28;19984;-84
2021/10/21 11:27:06;;;;;;;;;;;;;;;15.95;55.56;100408.75;4957822;28;20528;-85
2021/10/21 11:29:35;;;;;;;;;;;;;;;16.49;54.48;100411.88;4958114;28;20355;-86
2021/10/21 11:32:04;;;;;;;;;;;;;;;17.09;54.23;100419.84;4958718;28;19922;-88
2021/10/21 11:34:30;;;;;;;;;;;;;;;17.42;53.00;100420.81;4960463;28;19981;-89
2021/10/21 11:36:55;;;;;;;;;;;;;;;16.69;54.70;100429.41;4958961;28;19922;-86
2021/10/21 11:39:34;;;;;;;;;;;;;;;17.04;53.84;100433.03;4974508;28;19941;-84
2021/10/21 11:42:03;;;;;;;;;;;;;;;16.20;55.43;100438.72;4957630;28;19918;-84
2021/10/21 11:44:28;;;;;;;;;;;;;;;16.76;53.59;100438.00;4958147;28;20288;-85
2021/10/21 11:46:57;;;;;;;;;;;;;;;16.70;54.00;100435.72;4976146;28;19919;-86
2021/10/21 11:49:26;;;;;;;;;;;;;;;16.43;53.17;100447.88;4957590;28;19965;-84
2021/10/21 11:52:21;;;;;;;;;;;;;;;16.86;52.72;100435.38;4957463;28;19918;-85
2021/10/21 11:54:46;;;;;;;;;;;;;;;16.09;54.07;100442.28;4958119;28;19922;-85
2021/10/21 11:57:11;;;;;;;;;;;;;;;16.78;52.65;100442.31;4957249;28;19922;-86
2021/10/21 11:59:45;;;;;;;;;;;;;;;17.16;52.93;100449.28;4957899;28;19922;-84
2021/10/21 12:02:18;;;;;;;;;;;;;;;17.68;51.46;100455.06;4958512;28;19929;-86
2021/10/21 12:04:45;;;;;;;;;;;;;;;18.01;50.68;100444.13;4959566;28;19976;-85
2021/10/21 12:07:11;;;;;;;;;;;;;;;18.33;50.78;100443.25;4955823;28;20013;-85
2021/10/21 12:09:37;;;;;;;;;;;;;;;18.14;51.01;100454.91;4976352;28;19926;-85
2021/10/21 12:12:04;;;;;;;;;;;;;;;17.35;53.14;100491.56;4975555;28;20017;-84
2021/10/21 12:14:30;;;;;;;;;;;;;;;16.55;54.13;100474.19;4956811;28;19969;-86
2021/10/21 12:16:56;;;;;;;;;;;;;;;16.42;53.50;100487.94;4957214;28;19922;-84
2021/10/21 12:19:26;;;;;;;;;;;;;;;17.07;52.48;100501.13;4957445;28;19926;-83
2021/10/21 12:21:51;;;;;;;;;;;;;;;16.19;52.78;100505.25;4957547;28;19977;-84
2021/10/21 12:24:22;;;;;;;;;;;;;;;16.99;51.95;100510.78;4974977;28;19922;-85
2021/10/21 12:27:01;;;;;;;;;;;;;;;16.58;52.01;100514.06;4950102;28;19918;-85
2021/10/21 12:29:43;;;;;;;;;;;;;;;16.64;51.37;100527.22;4974262;28;20391;-85
2021/10/21 12:32:12;;;;;;;;;;;;;;;16.15;53.59;100531.88;4956522;28;20481;-85
2021/10/21 12:34:37;;;;;;;;;;;;;;;16.41;53.26;100539.91;4956145;28;19918;-84
2021/10/21 12:37:09;;;;;;;;;;;;;;;16.79;53.08;100533.34;4976661;28;19953;-85
2021/10/21 12:39:36;;;;;;;;;;;;;;;16.92;53.04;100560.59;4960660;28;19918;-85
2021/10/21 12:42:08;;;;;;;;;;;;;;;17.08;53.20;100579.41;4960800;28;20295;-84